createdAt,value
2019-04-11T00:00:44.243Z,102360.35
2019-04-11T00:03:13.344Z,102356.67
2019-04-11T00:05:41.779Z,102357.64
2019-04-11T00:08:10.198Z,102357.26
2019-04-11T00:10:39.496Z,102357.16
2019-04-11T00:13:17.379Z,102360.11
2019-04-11T00:15:38.012Z,102361.70
2019-04-11T00:18:06.347Z,102362.56
2019-04-11T00:20:34.666Z,102361.95
2019-04-11T00:23:03.018Z,102359.52
2019-04-11T00:25:31.713Z,102358.91
2019-04-11T00:28:01.288Z,102360.61
2019-04-11T00:30:30.318Z,102363.33
2019-04-11T00:32:58.812Z,102357.91
2019-04-11T00:35:27.932Z,102362.09
2019-04-11T00:37:57.160Z,102365.42
2019-04-11T00:40:25.566Z,102360.98
2019-04-11T00:42:54.725Z,102362.45
2019-04-11T00:45:23.346Z,102361.80
2019-04-11T00:47:51.729Z,102363.28
2019-04-11T00:50:21.088Z,102371.91
2019-04-11T00:52:49.852Z,102369.17
2019-04-11T00:55:19.560Z,102368.20
2019-04-11T00:57:47.939Z,102372.61
2019-04-11T01:00:16.283Z,102369.52
2019-04-11T01:02:45.479Z,102370.64
2019-04-11T01:05:15.066Z,102377.80
2019-04-11T01:07:43.928Z,102377.34
2019-04-11T01:10:12.359Z,102385.86
2019-04-11T01:12:40.982Z,102379.20
2019-04-11T01:15:11.212Z,102378.76
2019-04-11T01:17:39.770Z,102376.73
2019-04-11T01:20:08.161Z,102380.50
2019-04-11T01:22:36.519Z,102382.60
2019-04-11T01:25:06.336Z,102383.52
2019-04-11T01:27:34.822Z,102383.42
2019-04-11T01:30:04.746Z,102382.16
2019-04-11T01:32:33.074Z,102383.19
2019-04-11T01:35:01.717Z,102381.34
2019-04-11T01:37:30.059Z,102382.45
2019-04-11T01:40:01.250Z,102387.70
2019-04-11T01:42:29.734Z,102387.81
2019-04-11T01:44:58.399Z,102386.95
2019-04-11T01:47:45.049Z,102387.12
2019-04-11T01:50:15.024Z,102389.68
2019-04-11T01:52:44.544Z,102389.10
2019-04-11T01:55:12.955Z,102396.61
2019-04-11T01:57:43.094Z,102393.72
2019-04-11T02:00:12.991Z,102397.88
2019-04-11T02:02:46.502Z,102395.80
2019-04-11T02:05:23.049Z,102401.20
2019-04-11T02:07:51.802Z,102397.25
2019-04-11T02:10:21.052Z,102401.00
2019-04-11T02:12:49.439Z,102395.81
2019-04-11T02:15:17.789Z,102398.48
2019-04-11T02:17:46.751Z,102400.78
2019-04-11T02:20:15.126Z,102400.18
2019-04-11T02:22:45.111Z,102404.41
2019-04-11T02:25:15.091Z,102406.02
2019-04-11T02:27:44.266Z,102408.58
2019-04-11T02:30:14.199Z,102407.22
2019-04-11T02:32:44.537Z,102412.66
2019-04-11T02:35:13.412Z,102409.75
2019-04-11T02:37:44.413Z,102410.07
2019-04-11T02:40:13.542Z,102402.17
2019-04-11T02:42:43.298Z,102414.19
2019-04-11T02:45:24.445Z,102415.18
2019-04-11T02:47:45.988Z,102412.23
2019-04-11T02:50:14.913Z,102412.63
2019-04-11T02:52:44.276Z,102411.45
2019-04-11T02:55:13.130Z,102413.12
2019-04-11T02:57:42.961Z,102416.25
2019-04-11T03:00:13.117Z,102423.91
2019-04-11T03:02:43.916Z,102424.30
2019-04-11T03:05:13.676Z,102424.94
2019-04-11T03:07:42.603Z,102437.46
2019-04-11T03:10:12.312Z,102427.91
2019-04-11T03:12:43.332Z,102436.44
2019-04-11T03:15:27.514Z,102439.05
2019-04-11T03:17:44.559Z,102438.98
2019-04-11T03:20:23.029Z,102439.16
2019-04-11T03:22:42.531Z,102434.88
2019-04-11T03:25:11.666Z,102433.44
2019-04-11T03:27:40.921Z,102433.41
2019-04-11T03:30:14.582Z,102433.03
2019-04-11T03:36:01.228Z,102436.53
2019-04-11T03:37:58.899Z,102431.21
2019-04-11T03:40:28.809Z,102431.91
2019-04-11T03:42:55.618Z,102430.80
2019-04-11T03:45:34.847Z,102433.67
2019-04-11T03:48:00.975Z,102436.39
2019-04-11T03:50:16.554Z,102441.88
2019-04-11T03:52:40.805Z,102439.95
2019-04-11T03:55:11.069Z,102438.05
2019-04-11T03:57:41.574Z,102440.61
2019-04-11T04:00:12.710Z,102443.45
2019-04-11T04:02:41.332Z,102439.20
2019-04-11T04:05:10.599Z,102441.08
2019-04-11T04:07:40.361Z,102444.81
2019-04-11T04:10:11.574Z,102447.28
2019-04-11T04:12:40.274Z,102450.17
2019-04-11T04:15:36.501Z,102452.91
2019-04-11T04:18:08.726Z,102452.64
2019-04-11T04:20:41.803Z,102457.42
2019-04-11T04:23:14.258Z,102456.05
2019-04-11T04:25:44.980Z,102455.66
2019-04-11T04:28:14.240Z,102461.23
2019-04-11T04:30:43.334Z,102460.09
2019-04-11T04:33:14.425Z,102468.65
2019-04-11T04:35:44.528Z,102469.47
2019-04-11T04:38:13.635Z,102469.72
2019-04-11T04:40:58.428Z,102467.25
2019-04-11T04:43:14.427Z,102472.08
2019-04-11T04:45:58.133Z,102483.11
2019-04-11T04:48:16.460Z,102481.22
2019-04-11T04:50:44.598Z,102479.73
2019-04-11T04:53:20.451Z,102477.27
2019-04-11T04:55:50.307Z,102482.58
2019-04-11T04:58:20.796Z,102480.63
2019-04-11T05:00:53.364Z,102480.50
2019-04-11T05:03:20.086Z,102485.29
2019-04-11T05:05:48.620Z,102487.20
2019-04-11T05:08:18.461Z,102491.14
2019-04-11T05:10:47.135Z,102492.23
2019-04-11T05:13:17.147Z,102496.79
2019-04-11T05:15:45.723Z,102495.02
2019-04-11T05:18:15.663Z,102498.25
2019-04-11T05:20:44.304Z,102492.16
2019-04-11T05:23:12.622Z,102499.84
2019-04-11T05:25:40.959Z,102501.36
2019-04-11T05:28:09.889Z,102503.27
2019-04-11T05:30:38.399Z,102503.77
2019-04-11T05:33:06.741Z,102506.71
2019-04-11T05:35:36.132Z,102504.05
2019-04-11T05:38:04.971Z,102508.48
2019-04-11T05:40:34.332Z,102510.70
2019-04-11T05:43:03.854Z,102509.59
2019-04-11T05:45:32.326Z,102508.92
2019-04-11T05:48:03.095Z,102509.63
2019-04-11T05:50:32.324Z,102510.11
2019-04-11T05:53:03.535Z,102511.87
2019-04-11T05:55:32.599Z,102517.06
2019-04-11T05:58:00.926Z,102515.64
2019-04-11T06:00:34.613Z,102514.54
2019-04-11T06:03:05.798Z,102518.66
2019-04-11T06:05:37.466Z,102517.52
2019-04-11T06:08:07.630Z,102511.09
2019-04-11T06:10:46.618Z,102518.56
2019-04-11T06:13:19.138Z,102520.38
2019-04-11T06:15:55.606Z,102522.55
2019-04-11T06:18:43.174Z,102518.25
2019-04-11T06:21:10.247Z,102524.36
2019-04-11T06:23:49.769Z,102525.42
2019-04-11T06:26:23.001Z,102531.06
2019-04-11T06:28:55.494Z,102530.52
2019-04-11T06:31:42.891Z,102536.80
2019-04-11T06:34:11.371Z,102533.96
2019-04-11T06:36:45.284Z,102541.52
2019-04-11T06:39:16.192Z,102551.23
2019-04-11T06:41:46.526Z,102552.19
2019-04-11T06:44:16.621Z,102551.66
2019-04-11T06:46:58.047Z,102552.33
2019-04-11T06:49:43.286Z,102552.48
2019-04-11T06:52:15.274Z,102553.35
2019-04-11T06:54:45.422Z,102560.92
2019-04-11T06:57:18.447Z,102557.06
2019-04-11T06:59:49.011Z,102560.53
2019-04-11T07:02:21.097Z,102558.45
2019-04-11T07:04:51.792Z,102568.44
2019-04-11T07:07:21.761Z,102565.98
2019-04-11T07:09:51.771Z,102563.06
2019-04-11T07:12:22.172Z,102560.62
2019-04-11T07:15:10.326Z,102566.49
2019-04-11T07:17:56.758Z,102563.80
2019-04-11T07:20:27.274Z,102562.37
2019-04-11T07:23:14.019Z,102578.65
2019-04-11T07:25:47.345Z,102569.66
2019-04-11T07:28:23.283Z,102572.58
2019-04-11T07:31:10.568Z,102572.39
2019-04-11T07:33:43.304Z,102575.28
2019-04-11T07:36:29.865Z,102578.27
2019-04-11T07:39:05.730Z,102571.49
2019-04-11T07:41:39.442Z,102572.08
2019-04-11T07:44:10.000Z,102573.16
2019-04-11T07:46:56.431Z,102573.50
2019-04-11T07:49:44.950Z,102566.56
2019-04-11T07:52:15.518Z,102576.66
2019-04-11T07:54:44.011Z,102575.37
2019-04-11T07:57:30.664Z,102573.02
2019-04-11T08:00:09.490Z,102571.42
2019-04-11T08:02:45.686Z,102569.59
2019-04-11T08:05:15.716Z,102564.27
2019-04-11T08:07:57.403Z,102573.56
2019-04-11T08:10:39.339Z,102570.44
2019-04-11T08:13:12.376Z,102566.10
2019-04-11T08:15:58.902Z,102568.36
2019-04-11T08:18:35.087Z,102571.97
2019-04-11T08:21:21.894Z,102571.08
2019-04-11T08:23:52.071Z,102571.72
2019-04-11T08:26:38.532Z,102575.72
2019-04-11T08:29:11.998Z,102573.20
2019-04-11T08:31:56.707Z,102574.52
2019-04-11T08:34:27.315Z,102579.25
2019-04-11T08:37:13.634Z,102582.17
2019-04-11T08:39:42.471Z,102580.30
2019-04-11T08:42:29.631Z,102587.02
2019-04-11T08:44:58.867Z,102585.50
2019-04-11T08:47:40.190Z,102582.77
2019-04-11T08:49:59.472Z,102591.91
2019-04-11T08:52:32.436Z,102587.88
2019-04-11T08:55:06.112Z,102590.17
2019-04-11T08:57:36.253Z,102587.41
2019-04-11T09:00:24.375Z,102595.56
2019-04-11T09:03:13.450Z,102591.61
2019-04-11T09:05:49.458Z,102586.81
2019-04-11T09:08:38.454Z,102593.47
2019-04-11T09:11:20.623Z,102587.95
2019-04-11T09:13:51.436Z,102596.77
2019-04-11T09:16:24.314Z,102588.99
2019-04-11T09:18:54.492Z,102590.53
2019-04-11T09:21:40.907Z,102591.02
2019-04-11T09:24:16.785Z,102586.45
2019-04-11T09:27:02.782Z,102584.65
2019-04-11T09:29:32.747Z,102585.27
2019-04-11T09:32:20.169Z,102580.44
2019-04-11T09:34:52.680Z,102585.94
2019-04-11T09:37:22.094Z,102583.14
2019-04-11T09:40:10.355Z,102583.84
2019-04-11T09:42:40.329Z,102586.31
2019-04-11T09:45:19.626Z,102576.41
2019-04-11T09:48:12.493Z,102575.88
2019-04-11T09:50:40.595Z,102573.18
2019-04-11T09:53:11.910Z,102578.81
2019-04-11T09:55:42.102Z,102568.98
2019-04-11T09:58:17.782Z,102568.50
2019-04-11T10:00:59.596Z,102563.91
2019-04-11T10:03:29.801Z,102570.09
2019-04-11T10:06:09.349Z,102562.45
2019-04-11T10:08:39.856Z,102567.50
2019-04-11T10:11:10.174Z,102561.75
2019-04-11T10:13:49.342Z,102561.97
2019-04-11T10:25:21.245Z,102569.25
2019-04-11T10:28:09.267Z,102567.52
2019-04-11T10:31:04.179Z,102567.46
2019-04-11T10:34:04.513Z,102567.80
2019-04-11T10:36:34.962Z,102567.02
2019-04-11T10:39:13.215Z,102574.30
2019-04-11T10:41:58.307Z,102573.59
2019-04-11T10:44:45.692Z,102575.66
2019-04-11T10:47:16.511Z,102575.57
2019-04-11T10:50:11.043Z,102573.94
2019-04-11T10:52:42.528Z,102577.31
2019-04-11T10:55:13.597Z,102576.22
2019-04-11T10:57:49.845Z,102565.06
2019-04-11T11:00:37.963Z,102573.18
2019-04-11T11:03:11.632Z,102574.08
2019-04-11T11:05:58.003Z,102564.37
2019-04-11T11:08:39.909Z,102561.97
2019-04-11T11:11:14.829Z,102564.12
2019-04-11T11:14:00.980Z,102563.80
2019-04-11T11:16:39.400Z,102563.25
2019-04-11T11:19:37.152Z,102555.97
2019-04-11T11:21:40.048Z,102563.39
2019-04-11T11:24:26.057Z,102560.05
2019-04-11T11:26:57.161Z,102564.07
2019-04-11T11:29:32.359Z,102563.28
2019-04-11T11:32:05.302Z,102565.70
2019-04-11T11:34:41.117Z,102568.87
2019-04-11T11:37:26.239Z,102562.89
2019-04-11T11:40:14.986Z,102568.00
2019-04-11T11:42:44.352Z,102570.00
2019-04-11T11:45:19.904Z,102571.87
2019-04-11T11:47:53.235Z,102568.77
2019-04-11T11:50:23.826Z,102568.02
2019-04-11T11:53:04.801Z,102574.02
2019-04-11T11:55:31.652Z,102569.09
2019-04-11T11:58:19.552Z,102568.56
2019-04-11T12:00:53.503Z,102564.55
2019-04-11T12:03:25.961Z,102559.75
2019-04-11T12:05:54.028Z,102568.36
2019-04-11T12:08:33.277Z,102565.63
2019-04-11T12:11:03.980Z,102570.66
2019-04-11T12:13:34.947Z,102563.71
2019-04-11T12:16:10.008Z,102571.59
2019-04-11T12:18:53.124Z,102567.64
2019-04-11T12:21:31.426Z,102571.85
2019-04-11T12:24:06.666Z,102572.06
2019-04-11T12:26:36.333Z,102568.10
2019-04-11T12:29:12.470Z,102562.98
2019-04-11T12:31:42.452Z,102568.00
2019-04-11T12:34:27.447Z,102561.09
2019-04-11T12:36:56.936Z,102561.98
2019-04-11T12:39:43.279Z,102560.20
2019-04-11T12:42:13.279Z,102564.88
2019-04-11T12:45:01.287Z,102557.67
2019-04-11T12:47:31.287Z,102555.73
2019-04-11T12:50:16.398Z,102556.11
2019-04-11T12:52:46.387Z,102542.96
2019-04-11T12:55:22.396Z,102546.33
2019-04-11T12:57:58.127Z,102540.50
2019-04-11T13:00:43.054Z,102543.90
2019-04-11T13:03:27.896Z,102536.46
2019-04-11T13:06:00.815Z,102541.34
2019-04-11T13:08:30.788Z,102541.30
2019-04-11T13:10:59.503Z,102541.09
2019-04-11T13:13:32.174Z,102536.38
2019-04-11T13:16:11.317Z,102528.72
2019-04-11T13:18:36.558Z,102534.30
2019-04-11T13:21:06.519Z,102533.09
2019-04-11T13:23:42.207Z,102527.26
2019-04-11T13:26:12.182Z,102530.72
2019-04-11T13:28:42.429Z,102528.01
2019-04-11T13:31:24.650Z,102528.91
2019-04-11T13:33:54.967Z,102526.13
2019-04-11T13:36:47.078Z,102524.73
2019-04-11T13:39:16.075Z,102522.98
2019-04-11T13:42:02.354Z,102520.84
2019-04-11T13:44:30.688Z,102524.16
2019-04-11T13:47:00.655Z,102512.66
2019-04-11T13:49:39.939Z,102512.67
2019-04-11T13:52:26.430Z,102513.64
2019-04-11T13:54:56.420Z,102514.16
2019-04-11T13:57:26.417Z,102504.98
2019-04-11T14:00:17.944Z,102505.73
2019-04-11T14:03:04.449Z,102503.66
2019-04-11T14:05:34.428Z,102493.34
2019-04-11T14:08:03.068Z,102491.70
2019-04-11T14:10:32.147Z,102487.70
2019-04-11T14:13:24.013Z,102496.91
2019-04-11T14:16:03.467Z,102493.67
2019-04-11T14:18:36.004Z,102495.88
2019-04-11T14:24:14.887Z,102484.63
2019-04-11T14:26:59.746Z,102482.96
2019-04-11T14:29:45.901Z,102477.11
2019-04-11T14:32:42.962Z,102476.17
2019-04-11T14:48:18.191Z,102471.90
2019-04-11T14:51:01.714Z,102476.17
2019-04-11T14:56:55.025Z,102467.19
2019-04-11T14:59:29.891Z,102466.58
2019-04-11T15:20:02.356Z,102471.17
2019-04-11T15:37:21.096Z,102475.77
2019-04-11T15:40:02.933Z,102475.05
2019-04-11T15:42:40.574Z,102468.03
2019-04-11T15:45:14.017Z,102478.37
2019-04-11T15:47:49.393Z,102475.64
2019-04-11T15:50:35.288Z,102479.28
2019-04-11T15:53:06.537Z,102484.77
2019-04-11T15:55:51.488Z,102487.15
2019-04-11T15:58:21.755Z,102491.37
2019-04-11T19:41:02.957Z,102651.28
2019-04-11T19:43:49.291Z,102646.34
2019-04-11T19:46:20.382Z,102655.78
2019-04-11T19:49:18.405Z,102645.80
2019-04-11T19:52:01.694Z,102647.52
2019-04-11T19:57:44.588Z,102650.16
2019-04-11T20:18:36.544Z,102664.23
2019-04-11T20:33:26.347Z,102662.11
2019-04-11T20:42:38.915Z,102657.09
2019-04-11T20:51:23.751Z,102661.33
2019-04-11T20:53:52.451Z,102661.36
2019-04-11T20:56:24.321Z,102664.21
2019-04-11T21:01:43.984Z,102661.52
2019-04-11T21:04:18.648Z,102658.83
2019-04-11T21:06:52.524Z,102661.17
2019-04-11T21:09:33.031Z,102665.83
2019-04-11T21:12:07.443Z,102662.18
2019-04-11T21:14:34.699Z,102665.05
2019-04-11T21:17:17.839Z,102667.91
2019-04-11T21:19:58.858Z,102668.05
2019-04-11T21:22:37.692Z,102660.01
2019-04-11T21:25:03.773Z,102664.84
2019-04-11T21:27:38.331Z,102661.91
2019-04-11T21:30:07.756Z,102657.58
2019-04-11T21:32:45.383Z,102671.17
2019-04-11T21:35:33.523Z,102671.92
2019-04-11T21:38:12.371Z,102669.45
2019-04-11T21:43:36.025Z,102669.46
2019-04-11T21:46:09.801Z,102664.39
2019-04-11T21:48:47.183Z,102678.71
2019-04-11T21:51:34.855Z,102675.89
2019-04-11T21:53:51.972Z,102675.73
2019-04-11T21:56:31.038Z,102674.03
2019-04-11T21:59:04.712Z,102673.17
2019-04-11T22:01:39.581Z,102674.89
2019-04-11T22:04:13.710Z,102669.97
2019-04-11T22:06:49.655Z,102674.89
2019-04-11T22:09:22.593Z,102675.36
2019-04-11T22:11:51.071Z,102676.72
2019-04-11T22:14:21.239Z,102679.20
2019-04-11T22:16:50.189Z,102677.58
2019-04-11T22:19:20.125Z,102677.08
2019-04-11T22:21:50.668Z,102675.25
2019-04-11T22:24:19.127Z,102668.20
2019-04-11T22:26:54.484Z,102675.88
2019-04-11T22:29:25.016Z,102672.86
2019-04-11T22:31:56.037Z,102679.88
2019-04-11T22:34:38.569Z,102685.92
2019-04-11T22:37:07.189Z,102680.50
2019-04-11T22:39:37.945Z,102679.88
2019-04-11T22:42:08.081Z,102678.75
2019-04-11T22:44:39.572Z,102682.20
2019-04-11T22:47:09.226Z,102681.30
2019-04-11T22:49:39.987Z,102675.76
2019-04-11T22:52:12.190Z,102684.28
2019-04-11T22:54:42.344Z,102690.40
2019-04-11T22:57:12.879Z,102683.87
2019-04-11T22:59:45.302Z,102688.30
2019-04-11T23:02:18.475Z,102689.14
2019-04-11T23:04:48.545Z,102689.89
2019-04-11T23:07:17.937Z,102685.30
2019-04-11T23:09:50.180Z,102691.95
2019-04-11T23:12:22.950Z,102689.25
2019-04-11T23:14:51.407Z,102687.53
2019-04-11T23:17:26.541Z,102692.57
2019-04-11T23:19:57.867Z,102695.90
2019-04-11T23:22:26.231Z,102695.02
2019-04-11T23:24:59.245Z,102690.70
2019-04-11T23:27:29.304Z,102692.67
2019-04-11T23:29:59.762Z,102694.75
2019-04-11T23:32:28.444Z,102698.32
2019-04-11T23:34:58.506Z,102701.37
2019-04-11T23:37:26.994Z,102696.33
2019-04-11T23:39:55.540Z,102702.37
2019-04-11T23:42:25.689Z,102703.84
2019-04-11T23:44:54.184Z,102708.02
2019-04-11T23:47:24.264Z,102703.42
2019-04-11T23:49:56.022Z,102705.00
2019-04-11T23:52:27.378Z,102699.70
2019-04-11T23:54:58.213Z,102698.95
2019-04-11T23:57:26.431Z,102703.02
2019-04-11T23:59:59.796Z,102707.58
